Aviation Digital Data Service (ADDS)

Output produced by METARs form (1819 UTC 18 April 2019)
found at http://www.aviationweather.gov/metar/data/
 
METAR text: LUKK 181800Z 35004KT 320V100 CAVOK 11/01 Q1026 R08/D NOSIG
Conditions at: LUKK (CHISINAU INTL , MD) observed 1800 UTC 18 April 2019
Temperature: 11.0°C (52°F)
Dewpoint: 1.0°C (34°F) [RH = 50%]
Pressure (altimeter): 30.30 inches Hg (1026.0 mb)
Winds: from the N (350 degrees) at 5 MPH (4 knots; 2.1 m/s)
Visibility: 6 or more miles (10+ km)
Ceiling: ceiling and visibility are OK
Clouds: unknown
Weather: no significant weather observed at this time

METAR text: LUKK 181730Z 03005KT CAVOK 11/01 Q1026 R08/D NOSIG
Conditions at: LUKK (CHISINAU INTL , MD) observed 1730 UTC 18 April 2019
Temperature: 11.0°C (52°F)
Dewpoint: 1.0°C (34°F) [RH = 50%]
Pressure (altimeter): 30.30 inches Hg (1026.0 mb)
Winds: from the NNE (30 degrees) at 6 MPH (5 knots; 2.6 m/s)
Visibility: 6 or more miles (10+ km)
Ceiling: ceiling and visibility are OK
Clouds: unknown
Weather: no significant weather observed at this time

METAR text: LUKK 181700Z 03004KT CAVOK 11/00 Q1026 R08/D NOSIG
Conditions at: LUKK (CHISINAU INTL , MD) observed 1700 UTC 18 April 2019
Temperature: 11.0°C (52°F)
Dewpoint: 0.0°C (32°F) [RH = 47%]
Pressure (altimeter): 30.30 inches Hg (1026.0 mb)
Winds: from the NNE (30 degrees) at 5 MPH (4 knots; 2.1 m/s)
Visibility: 6 or more miles (10+ km)
Ceiling: ceiling and visibility are OK
Clouds: unknown
Weather: no significant weather observed at this time

METAR text: LUKK 181630Z 04007KT CAVOK 12/00 Q1026 R08/D NOSIG
Conditions at: LUKK (CHISINAU INTL , MD) observed 1630 UTC 18 April 2019
Temperature: 12.0°C (54°F)
Dewpoint: 0.0°C (32°F) [RH = 44%]
Pressure (altimeter): 30.30 inches Hg (1026.0 mb)
Winds: from the NE (40 degrees) at 8 MPH (7 knots; 3.6 m/s)
Visibility: 6 or more miles (10+ km)
Ceiling: ceiling and visibility are OK
Clouds: unknown
Weather: no significant weather observed at this time

METAR text: LUKK 181600Z 04007KT CAVOK 13/M00 Q1025 R08/D NOSIG
Conditions at: LUKK (CHISINAU INTL , MD) observed 1600 UTC 18 April 2019
Temperature: 13.0°C (55°F)
Dewpoint: 0.0°C (32°F) [RH = 41%]
Pressure (altimeter): 30.27 inches Hg (1025.0 mb)
Winds: from the NE (40 degrees) at 8 MPH (7 knots; 3.6 m/s)
Visibility: 6 or more miles (10+ km)
Ceiling: ceiling and visibility are OK
Clouds: unknown
Weather: no significant weather observed at this time

METAR text: LUKK 181530Z 04010KT CAVOK 13/00 Q1025 R08/D NOSIG
Conditions at: LUKK (CHISINAU INTL , MD) observed 1530 UTC 18 April 2019
Temperature: 13.0°C (55°F)
Dewpoint: 0.0°C (32°F) [RH = 41%]
Pressure (altimeter): 30.27 inches Hg (1025.0 mb)
Winds: from the NE (40 degrees) at 12 MPH (10 knots; 5.1 m/s)
Visibility: 6 or more miles (10+ km)
Ceiling: ceiling and visibility are OK
Clouds: unknown
Weather: no significant weather observed at this time

METAR text: LUKK 181500Z 05011KT 030V090 CAVOK 13/00 Q1025 R26/D NOSIG
Conditions at: LUKK (CHISINAU INTL , MD) observed 1500 UTC 18 April 2019
Temperature: 13.0°C (55°F)
Dewpoint: 0.0°C (32°F) [RH = 41%]
Pressure (altimeter): 30.27 inches Hg (1025.0 mb)
Winds: from the NE (50 degrees) at 13 MPH (11 knots; 5.7 m/s)
Visibility: 6 or more miles (10+ km)
Ceiling: ceiling and visibility are OK
Clouds: unknown
Weather: no significant weather observed at this time

METAR text: LUKK 181430Z 04012KT CAVOK 13/01 Q1026 R08/D NOSIG
Conditions at: LUKK (CHISINAU INTL , MD) observed 1430 UTC 18 April 2019
Temperature: 13.0°C (55°F)
Dewpoint: 1.0°C (34°F) [RH = 44%]
Pressure (altimeter): 30.30 inches Hg (1026.0 mb)
Winds: from the NE (40 degrees) at 14 MPH (12 knots; 6.2 m/s)
Visibility: 6 or more miles (10+ km)
Ceiling: ceiling and visibility are OK
Clouds: unknown
Weather: no significant weather observed at this time

METAR text: LUKK 181400Z 04012KT 010V070 CAVOK 14/01 Q1026 R08/D NOSIG
Conditions at: LUKK (CHISINAU INTL , MD) observed 1400 UTC 18 April 2019
Temperature: 14.0°C (57°F)
Dewpoint: 1.0°C (34°F) [RH = 41%]
Pressure (altimeter): 30.30 inches Hg (1026.0 mb)
Winds: from the NE (40 degrees) at 14 MPH (12 knots; 6.2 m/s)
Visibility: 6 or more miles (10+ km)
Ceiling: ceiling and visibility are OK
Clouds: unknown
Weather: no significant weather observed at this time

METAR text: LUKK 181330Z 03008KT 360V060 CAVOK 14/01 Q1026 R08/D NOSIG
Conditions at: LUKK (CHISINAU INTL , MD) observed 1330 UTC 18 April 2019
Temperature: 14.0°C (57°F)
Dewpoint: 1.0°C (34°F) [RH = 41%]
Pressure (altimeter): 30.30 inches Hg (1026.0 mb)
Winds: from the NNE (30 degrees) at 9 MPH (8 knots; 4.1 m/s)
Visibility: 6 or more miles (10+ km)
Ceiling: ceiling and visibility are OK
Clouds: unknown
Weather: no significant weather observed at this time

METAR text: LUKK 181300Z 03012KT 360V060 CAVOK 13/02 Q1026 R08/D NOSIG
Conditions at: LUKK (CHISINAU INTL , MD) observed 1300 UTC 18 April 2019
Temperature: 13.0°C (55°F)
Dewpoint: 2.0°C (36°F) [RH = 47%]
Pressure (altimeter): 30.30 inches Hg (1026.0 mb)
Winds: from the NNE (30 degrees) at 14 MPH (12 knots; 6.2 m/s)
Visibility: 6 or more miles (10+ km)
Ceiling: ceiling and visibility are OK
Clouds: unknown
Weather: no significant weather observed at this time

METAR text: LUKK 181230Z 03012KT 360V060 CAVOK 14/02 Q1026 R26/D NOSIG
Conditions at: LUKK (CHISINAU INTL , MD) observed 1230 UTC 18 April 2019
Temperature: 14.0°C (57°F)
Dewpoint: 2.0°C (36°F) [RH = 44%]
Pressure (altimeter): 30.30 inches Hg (1026.0 mb)
Winds: from the NNE (30 degrees) at 14 MPH (12 knots; 6.2 m/s)
Visibility: 6 or more miles (10+ km)
Ceiling: ceiling and visibility are OK
Clouds: unknown
Weather: no significant weather observed at this time

METAR text: LUKK 181200Z 05014KT 9999 FEW045 13/01 Q1026 R26/D NOSIG
Conditions at: LUKK (CHISINAU INTL , MD) observed 1200 UTC 18 April 2019
Temperature: 13.0°C (55°F)
Dewpoint: 1.0°C (34°F) [RH = 44%]
Pressure (altimeter): 30.30 inches Hg (1026.0 mb)
Winds: from the NE (50 degrees) at 16 MPH (14 knots; 7.2 m/s)
Visibility: 6 or more miles (10+ km)
Ceiling: at least 12,000 feet AGL
Clouds: few clouds at 4500 feet AGL
Weather: no significant weather observed at this time

METAR text: LUKK 181130Z 03011KT 360V060 9999 FEW029 13/04 Q1026 R26/D NOSIG
Conditions at: LUKK (CHISINAU INTL , MD) observed 1130 UTC 18 April 2019
Temperature: 13.0°C (55°F)
Dewpoint: 4.0°C (39°F) [RH = 54%]
Pressure (altimeter): 30.30 inches Hg (1026.0 mb)
Winds: from the NNE (30 degrees) at 13 MPH (11 knots; 5.7 m/s)
Visibility: 6 or more miles (10+ km)
Ceiling: at least 12,000 feet AGL
Clouds: few clouds at 2900 feet AGL
Weather: no significant weather observed at this time

METAR text: LUKK 181100Z 01010KT 9999 FEW022 SCT026 12/06 Q1027 R08/D NOSIG
Conditions at: LUKK (CHISINAU INTL , MD) observed 1100 UTC 18 April 2019
Temperature: 12.0°C (54°F)
Dewpoint: 6.0°C (43°F) [RH = 67%]
Pressure (altimeter): 30.32 inches Hg (1027.0 mb)
Winds: from the N (10 degrees) at 12 MPH (10 knots; 5.1 m/s)
Visibility: 6 or more miles (10+ km)
Ceiling: at least 12,000 feet AGL
Clouds: few clouds at 2200 feet AGL
scattered clouds at 2600 feet AGL
Weather: no significant weather observed at this time

METAR text: LUKK 181030Z 02010KT 9999 FEW022 SCT042 11/06 Q1027 R26/D NOSIG
Conditions at: LUKK (CHISINAU INTL , MD) observed 1030 UTC 18 April 2019
Temperature: 11.0°C (52°F)
Dewpoint: 6.0°C (43°F) [RH = 71%]
Pressure (altimeter): 30.32 inches Hg (1027.0 mb)
Winds: from the NNE (20 degrees) at 12 MPH (10 knots; 5.1 m/s)
Visibility: 6 or more miles (10+ km)
Ceiling: at least 12,000 feet AGL
Clouds: few clouds at 2200 feet AGL
scattered clouds at 4200 feet AGL
Weather: no significant weather observed at this time

METAR text: LUKK 181000Z 04008KT 9999 SCT020 BKN029 OVC050 11/07 Q1027 R26/D NOSIG
Conditions at: LUKK (CHISINAU INTL , MD) observed 1000 UTC 18 April 2019
Temperature: 11.0°C (52°F)
Dewpoint: 7.0°C (45°F) [RH = 76%]
Pressure (altimeter): 30.32 inches Hg (1027.0 mb)
Winds: from the NE (40 degrees) at 9 MPH (8 knots; 4.1 m/s)
Visibility: 6 or more miles (10+ km)
Ceiling: 2900 feet AGL
Clouds: scattered clouds at 2000 feet AGL
broken clouds at 2900 feet AGL
overcast cloud deck at 5000 feet AGL
Weather: no significant weather observed at this time

METAR text: LUKK 180930Z 04009KT 9999 FEW020 11/07 Q1027 R26/D NOSIG
Conditions at: LUKK (CHISINAU INTL , MD) observed 0930 UTC 18 April 2019
Temperature: 11.0°C (52°F)
Dewpoint: 7.0°C (45°F) [RH = 76%]
Pressure (altimeter): 30.32 inches Hg (1027.0 mb)
Winds: from the NE (40 degrees) at 10 MPH (9 knots; 4.6 m/s)
Visibility: 6 or more miles (10+ km)
Ceiling: at least 12,000 feet AGL
Clouds: few clouds at 2000 feet AGL
Weather: no significant weather observed at this time

METAR text: LUKK 180900Z 01010KT 9999 BKN021 BKN027 BKN033 11/06 Q1027 R08/150095 NOSIG
Conditions at: LUKK (CHISINAU INTL , MD) observed 0900 UTC 18 April 2019
Temperature: 11.0°C (52°F)
Dewpoint: 6.0°C (43°F) [RH = 71%]
Pressure (altimeter): 30.32 inches Hg (1027.0 mb)
Winds: from the N (10 degrees) at 12 MPH (10 knots; 5.1 m/s)
Visibility: 6 or more miles (10+ km)
Ceiling: 2100 feet AGL
Clouds: broken clouds at 2100 feet AGL
broken clouds at 2700 feet AGL
broken clouds at 3300 feet AGL
Weather: no significant weather observed at this time

METAR text: LUKK 180830Z 02010KT 9999 FEW018 BKN027 11/06 Q1027 R08/150095 NOSIG
Conditions at: LUKK (CHISINAU INTL , MD) observed 0830 UTC 18 April 2019
Temperature: 11.0°C (52°F)
Dewpoint: 6.0°C (43°F) [RH = 71%]
Pressure (altimeter): 30.32 inches Hg (1027.0 mb)
Winds: from the NNE (20 degrees) at 12 MPH (10 knots; 5.1 m/s)
Visibility: 6 or more miles (10+ km)
Ceiling: 2700 feet AGL
Clouds: few clouds at 1800 feet AGL
broken clouds at 2700 feet AGL
Weather: no significant weather observed at this time

METAR text: LUKK 180800Z 03009KT 010V070 9999 BKN029 10/06 Q1027 R08/150095 NOSIG
Conditions at: LUKK (CHISINAU INTL , MD) observed 0800 UTC 18 April 2019
Temperature: 10.0°C (50°F)
Dewpoint: 6.0°C (43°F) [RH = 76%]
Pressure (altimeter): 30.32 inches Hg (1027.0 mb)
Winds: from the NNE (30 degrees) at 10 MPH (9 knots; 4.6 m/s)
Visibility: 6 or more miles (10+ km)
Ceiling: 2900 feet AGL
Clouds: broken clouds at 2900 feet AGL
Weather: no significant weather observed at this time

METAR text: LUKK 180730Z 02008KT 9999 SCT032 09/06 Q1027 R08/150095 NOSIG
Conditions at: LUKK (CHISINAU INTL , MD) observed 0730 UTC 18 April 2019
Temperature: 9.0°C (48°F)
Dewpoint: 6.0°C (43°F) [RH = 81%]
Pressure (altimeter): 30.32 inches Hg (1027.0 mb)
Winds: from the NNE (20 degrees) at 9 MPH (8 knots; 4.1 m/s)
Visibility: 6 or more miles (10+ km)
Ceiling: at least 12,000 feet AGL
Clouds: scattered clouds at 3200 feet AGL
Weather: no significant weather observed at this time

METAR text: LUKK 180700Z 01008KT 9999 SCT012 SCT031 BKN039 09/06 Q1027 R08/150095 NOSIG
Conditions at: LUKK (CHISINAU INTL , MD) observed 0700 UTC 18 April 2019
Temperature: 9.0°C (48°F)
Dewpoint: 6.0°C (43°F) [RH = 81%]
Pressure (altimeter): 30.32 inches Hg (1027.0 mb)
Winds: from the N (10 degrees) at 9 MPH (8 knots; 4.1 m/s)
Visibility: 6 or more miles (10+ km)
Ceiling: 3900 feet AGL
Clouds: scattered clouds at 1200 feet AGL
scattered clouds at 3100 feet AGL
broken clouds at 3900 feet AGL
Weather: no significant weather observed at this time

METAR text: LUKK 180630Z 35007KT 9999 SCT013 BKN045 OVC067 10/06 Q1027 R08/290150 NOSIG
Conditions at: LUKK (CHISINAU INTL , MD) observed 0630 UTC 18 April 2019
Temperature: 10.0°C (50°F)
Dewpoint: 6.0°C (43°F) [RH = 76%]
Pressure (altimeter): 30.32 inches Hg (1027.0 mb)
Winds: from the N (350 degrees) at 8 MPH (7 knots; 3.6 m/s)
Visibility: 6 or more miles (10+ km)
Ceiling: 4500 feet AGL
Clouds: scattered clouds at 1300 feet AGL
broken clouds at 4500 feet AGL
overcast cloud deck at 6700 feet AGL
Weather: no significant weather observed at this time

METAR text: LUKK 180600Z 36005KT CAVOK 09/06 Q1026 R08/290150 NOSIG
Conditions at: LUKK (CHISINAU INTL , MD) observed 0600 UTC 18 April 2019
Temperature: 9.0°C (48°F)
Dewpoint: 6.0°C (43°F) [RH = 81%]
Pressure (altimeter): 30.30 inches Hg (1026.0 mb)
Winds: from the N (360 degrees) at 6 MPH (5 knots; 2.6 m/s)
Visibility: 6 or more miles (10+ km)
Ceiling: ceiling and visibility are OK
Clouds: unknown
Weather: no significant weather observed at this time

METAR text: LUKK 180530Z 36006KT 9999 FEW044 SCT071 09/06 Q1026 R08/290150 NOSIG
Conditions at: LUKK (CHISINAU INTL , MD) observed 0530 UTC 18 April 2019
Temperature: 9.0°C (48°F)
Dewpoint: 6.0°C (43°F) [RH = 81%]
Pressure (altimeter): 30.30 inches Hg (1026.0 mb)
Winds: from the N (360 degrees) at 7 MPH (6 knots; 3.1 m/s)
Visibility: 6 or more miles (10+ km)
Ceiling: at least 12,000 feet AGL
Clouds: few clouds at 4400 feet AGL
scattered clouds at 7100 feet AGL
Weather: no significant weather observed at this time

METAR text: LUKK 180500Z 01006KT 9999 BKN036 OVC046 08/07 Q1026 R08/290150 NOSIG
Conditions at: LUKK (CHISINAU INTL , MD) observed 0500 UTC 18 April 2019
Temperature: 8.0°C (46°F)
Dewpoint: 7.0°C (45°F) [RH = 93%]
Pressure (altimeter): 30.30 inches Hg (1026.0 mb)
Winds: from the N (10 degrees) at 7 MPH (6 knots; 3.1 m/s)
Visibility: 6 or more miles (10+ km)
Ceiling: 3600 feet AGL
Clouds: broken clouds at 3600 feet AGL
overcast cloud deck at 4600 feet AGL
Weather: no significant weather observed at this time

METAR text: LUKK 180430Z 04006KT 9999 FEW034 BKN045 08/06 Q1026 R08/290150 NOSIG
Conditions at: LUKK (CHISINAU INTL , MD) observed 0430 UTC 18 April 2019
Temperature: 8.0°C (46°F)
Dewpoint: 6.0°C (43°F) [RH = 87%]
Pressure (altimeter): 30.30 inches Hg (1026.0 mb)
Winds: from the NE (40 degrees) at 7 MPH (6 knots; 3.1 m/s)
Visibility: 6 or more miles (10+ km)
Ceiling: 4500 feet AGL
Clouds: few clouds at 3400 feet AGL
broken clouds at 4500 feet AGL
Weather: no significant weather observed at this time

METAR text: LUKK 180400Z 03006KT 9999 BKN016 BKN044 08/06 Q1026 R08/290150 BECMG SCT030
Conditions at: LUKK (CHISINAU INTL , MD) observed 0400 UTC 18 April 2019
Temperature: 8.0°C (46°F)
Dewpoint: 6.0°C (43°F) [RH = 87%]
Pressure (altimeter): 30.30 inches Hg (1026.0 mb)
Winds: from the NNE (30 degrees) at 7 MPH (6 knots; 3.1 m/s)
Visibility: 6 or more miles (10+ km)
Ceiling: 1600 feet AGL
Clouds: broken clouds at 1600 feet AGL
broken clouds at 4400 feet AGL
Weather: no significant weather observed at this time

METAR text: LUKK 180330Z 05006KT 9999 BKN015 OVC068 08/06 Q1025 R08/290150 BECMG BKN020
Conditions at: LUKK (CHISINAU INTL , MD) observed 0330 UTC 18 April 2019
Temperature: 8.0°C (46°F)
Dewpoint: 6.0°C (43°F) [RH = 87%]
Pressure (altimeter): 30.27 inches Hg (1025.0 mb)
Winds: from the NE (50 degrees) at 7 MPH (6 knots; 3.1 m/s)
Visibility: 6 or more miles (10+ km)
Ceiling: 1500 feet AGL
Clouds: broken clouds at 1500 feet AGL
overcast cloud deck at 6800 feet AGL
Weather: no significant weather observed at this time

METAR text: LUKK 180300Z 06009KT 9999 OVC012 08/06 Q1025 R08/290150 BECMG BKN020
Conditions at: LUKK (CHISINAU INTL , MD) observed 0300 UTC 18 April 2019
Temperature: 8.0°C (46°F)
Dewpoint: 6.0°C (43°F) [RH = 87%]
Pressure (altimeter): 30.27 inches Hg (1025.0 mb)
Winds: from the ENE (60 degrees) at 10 MPH (9 knots; 4.6 m/s)
Visibility: 6 or more miles (10+ km)
Ceiling: 1200 feet AGL
Clouds: overcast cloud deck at 1200 feet AGL
Weather: no significant weather observed at this time

METAR text: LUKK 180230Z 06010KT 9999 OVC011 08/06 Q1025 R08/290150 BECMG BKN020
Conditions at: LUKK (CHISINAU INTL , MD) observed 0230 UTC 18 April 2019
Temperature: 8.0°C (46°F)
Dewpoint: 6.0°C (43°F) [RH = 87%]
Pressure (altimeter): 30.27 inches Hg (1025.0 mb)
Winds: from the ENE (60 degrees) at 12 MPH (10 knots; 5.1 m/s)
Visibility: 6 or more miles (10+ km)
Ceiling: 1100 feet AGL
Clouds: overcast cloud deck at 1100 feet AGL
Weather: no significant weather observed at this time

METAR text: LUKK 180200Z 06010KT 9999 -RA OVC011 08/07 Q1025 R08/290150 BECMG BKN020
Conditions at: LUKK (CHISINAU INTL , MD) observed 0200 UTC 18 April 2019
Temperature: 8.0°C (46°F)
Dewpoint: 7.0°C (45°F) [RH = 93%]
Pressure (altimeter): 30.27 inches Hg (1025.0 mb)
Winds: from the ENE (60 degrees) at 12 MPH (10 knots; 5.1 m/s)
Visibility: 6 or more miles (10+ km)
Ceiling: 1100 feet AGL
Clouds: overcast cloud deck at 1100 feet AGL
Weather: -RA  (light rain)

METAR text: LUKK 180130Z 07011KT 9999 OVC010 08/06 Q1024 R08/290150 TEMPO 4100 SHRA BR BKN006 BKN012CB
Conditions at: LUKK (CHISINAU INTL , MD) observed 0130 UTC 18 April 2019
Temperature: 8.0°C (46°F)
Dewpoint: 6.0°C (43°F) [RH = 87%]
Pressure (altimeter): 30.24 inches Hg (1024.0 mb)
Winds: from the ENE (70 degrees) at 13 MPH (11 knots; 5.7 m/s)
Visibility: 6 or more miles (10+ km)
Ceiling: 1000 feet AGL
Clouds: overcast cloud deck at 1000 feet AGL
Weather: no significant weather observed at this time

METAR text: LUKK 180100Z 06010KT 9999 -RA OVC011 08/07 Q1024 R08/290150 TEMPO 4100 SHRA BR BKN006 BKN012CB
Conditions at: LUKK (CHISINAU INTL , MD) observed 0100 UTC 18 April 2019
Temperature: 8.0°C (46°F)
Dewpoint: 7.0°C (45°F) [RH = 93%]
Pressure (altimeter): 30.24 inches Hg (1024.0 mb)
Winds: from the ENE (60 degrees) at 12 MPH (10 knots; 5.1 m/s)
Visibility: 6 or more miles (10+ km)
Ceiling: 1100 feet AGL
Clouds: overcast cloud deck at 1100 feet AGL
Weather: -RA  (light rain)

METAR text: LUKK 180030Z 06009KT 9999 -SHRA OVC009CB 08/07 Q1024 R08/290150 TEMPO 4100 SHRA BR BKN006 BKN012CB
Conditions at: LUKK (CHISINAU INTL , MD) observed 0030 UTC 18 April 2019
Temperature: 8.0°C (46°F)
Dewpoint: 7.0°C (45°F) [RH = 93%]
Pressure (altimeter): 30.24 inches Hg (1024.0 mb)
Winds: from the ENE (60 degrees) at 10 MPH (9 knots; 4.6 m/s)
Visibility: 6 or more miles (10+ km)
Ceiling: 900 feet AGL
Clouds: overcast cloud deck at 900 feet AGL
Weather: -SHRA  (light rain showers)

METAR text: LUKK 180000Z 07011KT 9999 -SHRA OVC010CB 08/07 Q1024 R08/290150 TEMPO 4100 SHRA BR BKN006 BKN012CB
Conditions at: LUKK (CHISINAU INTL , MD) observed 0000 UTC 18 April 2019
Temperature: 8.0°C (46°F)
Dewpoint: 7.0°C (45°F) [RH = 93%]
Pressure (altimeter): 30.24 inches Hg (1024.0 mb)
Winds: from the ENE (70 degrees) at 13 MPH (11 knots; 5.7 m/s)
Visibility: 6 or more miles (10+ km)
Ceiling: 1000 feet AGL
Clouds: overcast cloud deck at 1000 feet AGL
Weather: -SHRA  (light rain showers)

METAR text: LUKK 172330Z 07013KT 9999 -SHRA OVC010CB 09/07 Q1024 R08/290150 TEMPO 2400 SHRA BR BKN004 BKN012CB
Conditions at: LUKK (CHISINAU INTL , MD) observed 2330 UTC 17 April 2019
Temperature: 9.0°C (48°F)
Dewpoint: 7.0°C (45°F) [RH = 87%]
Pressure (altimeter): 30.24 inches Hg (1024.0 mb)
Winds: from the ENE (70 degrees) at 15 MPH (13 knots; 6.7 m/s)
Visibility: 6 or more miles (10+ km)
Ceiling: 1000 feet AGL
Clouds: overcast cloud deck at 1000 feet AGL
Weather: -SHRA  (light rain showers)

METAR text: LUKK 172300Z 07012KT 8000 -SHRA OVC009CB 09/08 Q1024 R08/290150 TEMPO 2400 SHRA BR BKN004 BKN012CB
Conditions at: LUKK (CHISINAU INTL , MD) observed 2300 UTC 17 April 2019
Temperature: 9.0°C (48°F)
Dewpoint: 8.0°C (46°F) [RH = 93%]
Pressure (altimeter): 30.24 inches Hg (1024.0 mb)
Winds: from the ENE (70 degrees) at 14 MPH (12 knots; 6.2 m/s)
Visibility: 5 miles ( 8 km)
Ceiling: 900 feet AGL
Clouds: overcast cloud deck at 900 feet AGL
Weather: -SHRA  (light rain showers)

METAR text: LUKK 172230Z 07009KT 7000 -SHRA OVC006CB 09/09 Q1023 R08/290150 TEMPO 2400 SHRA BR BKN004 BKN012CB
Conditions at: LUKK (CHISINAU INTL , MD) observed 2230 UTC 17 April 2019
Temperature: 9.0°C (48°F)
Dewpoint: 9.0°C (48°F) [RH = 100%]
Pressure (altimeter): 30.21 inches Hg (1023.0 mb)
Winds: from the ENE (70 degrees) at 10 MPH (9 knots; 4.6 m/s)
Visibility: 4 miles ( 7 km)
Ceiling: 600 feet AGL
Clouds: overcast cloud deck at 600 feet AGL
Weather: -SHRA  (light rain showers)

METAR text: LUKK 172200Z 08012KT 7000 OVC006 09/09 Q1023 R08/290150 TEMPO 4100 SHRA BKN008 BKN012CB
Conditions at: LUKK (CHISINAU INTL , MD) observed 2200 UTC 17 April 2019
Temperature: 9.0°C (48°F)
Dewpoint: 9.0°C (48°F) [RH = 100%]
Pressure (altimeter): 30.21 inches Hg (1023.0 mb)
Winds: from the E (80 degrees) at 14 MPH (12 knots; 6.2 m/s)
Visibility: 4 miles ( 7 km)
Ceiling: 600 feet AGL
Clouds: overcast cloud deck at 600 feet AGL
Weather: no significant weather observed at this time

METAR text: LUKK 172130Z 08017KT 5000 BR BKN006 OVC013CB 09/08 Q1023 R08/290150 TEMPO 4100 SHRA BKN008 BKN012CB
Conditions at: LUKK (CHISINAU INTL , MD) observed 2130 UTC 17 April 2019
Temperature: 9.0°C (48°F)
Dewpoint: 8.0°C (46°F) [RH = 93%]
Pressure (altimeter): 30.21 inches Hg (1023.0 mb)
Winds: from the E (80 degrees) at 20 MPH (17 knots; 8.7 m/s)
Visibility: 3 miles ( 5 km)
Ceiling: 600 feet AGL
Clouds: broken clouds at 600 feet AGL
overcast cloud deck at 1300 feet AGL
Weather: BR  (mist)

METAR text: LUKK 172100Z 06009KT 9999 BKN008 OVC011CB 10/09 Q1023 R08/290150 TEMPO 4100 SHRA BKN008 BKN012CB
Conditions at: LUKK (CHISINAU INTL , MD) observed 2100 UTC 17 April 2019
Temperature: 10.0°C (50°F)
Dewpoint: 9.0°C (48°F) [RH = 93%]
Pressure (altimeter): 30.21 inches Hg (1023.0 mb)
Winds: from the ENE (60 degrees) at 10 MPH (9 knots; 4.6 m/s)
Visibility: 6 or more miles (10+ km)
Ceiling: 800 feet AGL
Clouds: broken clouds at 800 feet AGL
overcast cloud deck at 1100 feet AGL
Weather: no significant weather observed at this time

METAR text: LUKK 172030Z 05007KT 9000 -SHRA FEW003 BKN008 OVC011CB 10/09 Q1022 RESHRA R08/290150 TEMPO 2100 SHRA BKN006 BKN012CB
Conditions at: LUKK (CHISINAU INTL , MD) observed 2030 UTC 17 April 2019
Temperature: 10.0°C (50°F)
Dewpoint: 9.0°C (48°F) [RH = 93%]
Pressure (altimeter): 30.18 inches Hg (1022.0 mb)
Winds: from the NE (50 degrees) at 8 MPH (7 knots; 3.6 m/s)
Visibility: 6 miles ( 9 km)
Ceiling: 800 feet AGL
Clouds: few clouds at 300 feet AGL
broken clouds at 800 feet AGL
overcast cloud deck at 1100 feet AGL
Weather: -SHRA  (light rain showers)

METAR text: LUKK 172000Z 01006KT 3800 SHRA SCT005 OVC012CB 10/09 Q1022 R08/290150 TEMPO 2100 SHRA BKN006 BKN012CB
Conditions at: LUKK (CHISINAU INTL , MD) observed 2000 UTC 17 April 2019
Temperature: 10.0°C (50°F)
Dewpoint: 9.0°C (48°F) [RH = 93%]
Pressure (altimeter): 30.18 inches Hg (1022.0 mb)
Winds: from the N (10 degrees) at 7 MPH (6 knots; 3.1 m/s)
Visibility: 2.36 miles (3.80 km)
Ceiling: 1200 feet AGL
Clouds: scattered clouds at 500 feet AGL
overcast cloud deck at 1200 feet AGL
Weather: SHRA  (rain showers)

METAR text: LUKK 171930Z 36005KT 7000 -SHRA OVC008CB 10/09 Q1022 RESHRA R08/290150 TEMPO 2100 SHRA BKN006 BKN012CB
Conditions at: LUKK (CHISINAU INTL , MD) observed 1930 UTC 17 April 2019
Temperature: 10.0°C (50°F)
Dewpoint: 9.0°C (48°F) [RH = 93%]
Pressure (altimeter): 30.18 inches Hg (1022.0 mb)
Winds: from the N (360 degrees) at 6 MPH (5 knots; 2.6 m/s)
Visibility: 4 miles ( 7 km)
Ceiling: 800 feet AGL
Clouds: overcast cloud deck at 800 feet AGL
Weather: -SHRA  (light rain showers)

METAR text: LUKK 171900Z 01005KT 330V040 9999 SCT013CB BKN023 OVC029 10/08 Q1022 R08/190095 TEMPO 5000 SHRA BKN010 BKN020CB
Conditions at: LUKK (CHISINAU INTL , MD) observed 1900 UTC 17 April 2019
Temperature: 10.0°C (50°F)
Dewpoint: 8.0°C (46°F) [RH = 87%]
Pressure (altimeter): 30.18 inches Hg (1022.0 mb)
Winds: from the N (10 degrees) at 6 MPH (5 knots; 2.6 m/s)
Visibility: 6 or more miles (10+ km)
Ceiling: 2300 feet AGL
Clouds: scattered clouds at 1300 feet AGL
broken clouds at 2300 feet AGL
overcast cloud deck at 2900 feet AGL
Weather: no significant weather observed at this time

METAR text: LUKK 171830Z 35007KT 9999 OVC031 11/07 Q1022 R08/D NOSIG
Conditions at: LUKK (CHISINAU INTL , MD) observed 1830 UTC 17 April 2019
Temperature: 11.0°C (52°F)
Dewpoint: 7.0°C (45°F) [RH = 76%]
Pressure (altimeter): 30.18 inches Hg (1022.0 mb)
Winds: from the N (350 degrees) at 8 MPH (7 knots; 3.6 m/s)
Visibility: 6 or more miles (10+ km)
Ceiling: 3100 feet AGL
Clouds: overcast cloud deck at 3100 feet AGL
Weather: no significant weather observed at this time

METAR text: LUKK 171800Z 36007KT 9999 FEW021 BKN035 11/07 Q1022 R08/D NOSIG
Conditions at: LUKK (CHISINAU INTL , MD) observed 1800 UTC 17 April 2019
Temperature: 11.0°C (52°F)
Dewpoint: 7.0°C (45°F) [RH = 76%]
Pressure (altimeter): 30.18 inches Hg (1022.0 mb)
Winds: from the N (360 degrees) at 8 MPH (7 knots; 3.6 m/s)
Visibility: 6 or more miles (10+ km)
Ceiling: 3500 feet AGL
Clouds: few clouds at 2100 feet AGL
broken clouds at 3500 feet AGL
Weather: no significant weather observed at this time

METAR text: LUKK 171730Z 01007KT 9999 BKN031 OVC043 11/07 Q1021 R08/D NOSIG
Conditions at: LUKK (CHISINAU INTL , MD) observed 1730 UTC 17 April 2019
Temperature: 11.0°C (52°F)
Dewpoint: 7.0°C (45°F) [RH = 76%]
Pressure (altimeter): 30.15 inches Hg (1021.0 mb)
Winds: from the N (10 degrees) at 8 MPH (7 knots; 3.6 m/s)
Visibility: 6 or more miles (10+ km)
Ceiling: 3100 feet AGL
Clouds: broken clouds at 3100 feet AGL
overcast cloud deck at 4300 feet AGL
Weather: no significant weather observed at this time

METAR text: LUKK 171700Z 36004KT 9999 OVC041 11/07 Q1021 R08/D NOSIG
Conditions at: LUKK (CHISINAU INTL , MD) observed 1700 UTC 17 April 2019
Temperature: 11.0°C (52°F)
Dewpoint: 7.0°C (45°F) [RH = 76%]
Pressure (altimeter): 30.15 inches Hg (1021.0 mb)
Winds: from the N (360 degrees) at 5 MPH (4 knots; 2.1 m/s)
Visibility: 6 or more miles (10+ km)
Ceiling: 4100 feet AGL
Clouds: overcast cloud deck at 4100 feet AGL
Weather: no significant weather observed at this time

METAR text: LUKK 171630Z 01004KT 9999 BKN040 OVC049 12/07 Q1021 R08/D NOSIG
Conditions at: LUKK (CHISINAU INTL , MD) observed 1630 UTC 17 April 2019
Temperature: 12.0°C (54°F)
Dewpoint: 7.0°C (45°F) [RH = 71%]
Pressure (altimeter): 30.15 inches Hg (1021.0 mb)
Winds: from the N (10 degrees) at 5 MPH (4 knots; 2.1 m/s)
Visibility: 6 or more miles (10+ km)
Ceiling: 4000 feet AGL
Clouds: broken clouds at 4000 feet AGL
overcast cloud deck at 4900 feet AGL
Weather: no significant weather observed at this time

METAR text: LUKK 171600Z 02005KT 9999 OVC033 12/06 Q1020 R08/D NOSIG
Conditions at: LUKK (CHISINAU INTL , MD) observed 1600 UTC 17 April 2019
Temperature: 12.0°C (54°F)
Dewpoint: 6.0°C (43°F) [RH = 67%]
Pressure (altimeter): 30.12 inches Hg (1020.0 mb)
Winds: from the NNE (20 degrees) at 6 MPH (5 knots; 2.6 m/s)
Visibility: 6 or more miles (10+ km)
Ceiling: 3300 feet AGL
Clouds: overcast cloud deck at 3300 feet AGL
Weather: no significant weather observed at this time

METAR text: LUKK 171530Z 04006KT 9999 BKN034 OVC049 12/06 Q1020 R08/D NOSIG
Conditions at: LUKK (CHISINAU INTL , MD) observed 1530 UTC 17 April 2019
Temperature: 12.0°C (54°F)
Dewpoint: 6.0°C (43°F) [RH = 67%]
Pressure (altimeter): 30.12 inches Hg (1020.0 mb)
Winds: from the NE (40 degrees) at 7 MPH (6 knots; 3.1 m/s)
Visibility: 6 or more miles (10+ km)
Ceiling: 3400 feet AGL
Clouds: broken clouds at 3400 feet AGL
overcast cloud deck at 4900 feet AGL
Weather: no significant weather observed at this time

METAR text: LUKK 171500Z 05007KT 9999 BKN034 OVC044 12/05 Q1020 R08/D NOSIG
Conditions at: LUKK (CHISINAU INTL , MD) observed 1500 UTC 17 April 2019
Temperature: 12.0°C (54°F)
Dewpoint: 5.0°C (41°F) [RH = 62%]
Pressure (altimeter): 30.12 inches Hg (1020.0 mb)
Winds: from the NE (50 degrees) at 8 MPH (7 knots; 3.6 m/s)
Visibility: 6 or more miles (10+ km)
Ceiling: 3400 feet AGL
Clouds: broken clouds at 3400 feet AGL
overcast cloud deck at 4400 feet AGL
Weather: no significant weather observed at this time

METAR text: LUKK 171430Z 05005KT 010V090 9999 BKN039 BKN045 12/05 Q1020 R08/D NOSIG
Conditions at: LUKK (CHISINAU INTL , MD) observed 1430 UTC 17 April 2019
Temperature: 12.0°C (54°F)
Dewpoint: 5.0°C (41°F) [RH = 62%]
Pressure (altimeter): 30.12 inches Hg (1020.0 mb)
Winds: from the NE (50 degrees) at 6 MPH (5 knots; 2.6 m/s)
Visibility: 6 or more miles (10+ km)
Ceiling: 3900 feet AGL
Clouds: broken clouds at 3900 feet AGL
broken clouds at 4500 feet AGL
Weather: no significant weather observed at this time

METAR text: LUKK 171400Z 06006KT 030V090 9999 OVC047 12/05 Q1020 R08/D NOSIG
Conditions at: LUKK (CHISINAU INTL , MD) observed 1400 UTC 17 April 2019
Temperature: 12.0°C (54°F)
Dewpoint: 5.0°C (41°F) [RH = 62%]
Pressure (altimeter): 30.12 inches Hg (1020.0 mb)
Winds: from the ENE (60 degrees) at 7 MPH (6 knots; 3.1 m/s)
Visibility: 6 or more miles (10+ km)
Ceiling: 4700 feet AGL
Clouds: overcast cloud deck at 4700 feet AGL
Weather: no significant weather observed at this time

METAR text: LUKK 171330Z 05006KT 010V080 9999 FEW026 OVC042 12/05 Q1020 R08/D NOSIG
Conditions at: LUKK (CHISINAU INTL , MD) observed 1330 UTC 17 April 2019
Temperature: 12.0°C (54°F)
Dewpoint: 5.0°C (41°F) [RH = 62%]
Pressure (altimeter): 30.12 inches Hg (1020.0 mb)
Winds: from the NE (50 degrees) at 7 MPH (6 knots; 3.1 m/s)
Visibility: 6 or more miles (10+ km)
Ceiling: 4200 feet AGL
Clouds: few clouds at 2600 feet AGL
overcast cloud deck at 4200 feet AGL
Weather: no significant weather observed at this time

METAR text: LUKK 171300Z 04007KT 9999 FEW025 OVC043 11/06 Q1019 R08/D NOSIG
Conditions at: LUKK (CHISINAU INTL , MD) observed 1300 UTC 17 April 2019
Temperature: 11.0°C (52°F)
Dewpoint: 6.0°C (43°F) [RH = 71%]
Pressure (altimeter): 30.09 inches Hg (1019.0 mb)
Winds: from the NE (40 degrees) at 8 MPH (7 knots; 3.6 m/s)
Visibility: 6 or more miles (10+ km)
Ceiling: 4300 feet AGL
Clouds: few clouds at 2500 feet AGL
overcast cloud deck at 4300 feet AGL
Weather: no significant weather observed at this time

METAR text: LUKK 171230Z 04010KT 9999 SCT024 BKN032 OVC042 11/05 Q1019 R08/D NOSIG
Conditions at: LUKK (CHISINAU INTL , MD) observed 1230 UTC 17 April 2019
Temperature: 11.0°C (52°F)
Dewpoint: 5.0°C (41°F) [RH = 66%]
Pressure (altimeter): 30.09 inches Hg (1019.0 mb)
Winds: from the NE (40 degrees) at 12 MPH (10 knots; 5.1 m/s)
Visibility: 6 or more miles (10+ km)
Ceiling: 3200 feet AGL
Clouds: scattered clouds at 2400 feet AGL
broken clouds at 3200 feet AGL
overcast cloud deck at 4200 feet AGL
Weather: no significant weather observed at this time

METAR text: LUKK 171200Z 06007KT 9999 OVC038 10/05 Q1019 R08/D NOSIG
Conditions at: LUKK (CHISINAU INTL , MD) observed 1200 UTC 17 April 2019
Temperature: 10.0°C (50°F)
Dewpoint: 5.0°C (41°F) [RH = 71%]
Pressure (altimeter): 30.09 inches Hg (1019.0 mb)
Winds: from the ENE (60 degrees) at 8 MPH (7 knots; 3.6 m/s)
Visibility: 6 or more miles (10+ km)
Ceiling: 3800 feet AGL
Clouds: overcast cloud deck at 3800 feet AGL
Weather: no significant weather observed at this time

METAR text: LUKK 171130Z 05010KT 9999 SCT021 BKN026 OVC032 10/05 Q1019 R08/D NOSIG
Conditions at: LUKK (CHISINAU INTL , MD) observed 1130 UTC 17 April 2019
Temperature: 10.0°C (50°F)
Dewpoint: 5.0°C (41°F) [RH = 71%]
Pressure (altimeter): 30.09 inches Hg (1019.0 mb)
Winds: from the NE (50 degrees) at 12 MPH (10 knots; 5.1 m/s)
Visibility: 6 or more miles (10+ km)
Ceiling: 2600 feet AGL
Clouds: scattered clouds at 2100 feet AGL
broken clouds at 2600 feet AGL
overcast cloud deck at 3200 feet AGL
Weather: no significant weather observed at this time

METAR text: LUKK 171100Z 09008KT 9999 FEW018 SCT036 OVC043 10/06 Q1019 R08/D NOSIG
Conditions at: LUKK (CHISINAU INTL , MD) observed 1100 UTC 17 April 2019
Temperature: 10.0°C (50°F)
Dewpoint: 6.0°C (43°F) [RH = 76%]
Pressure (altimeter): 30.09 inches Hg (1019.0 mb)
Winds: from the E (90 degrees) at 9 MPH (8 knots; 4.1 m/s)
Visibility: 6 or more miles (10+ km)
Ceiling: 4300 feet AGL
Clouds: few clouds at 1800 feet AGL
scattered clouds at 3600 feet AGL
overcast cloud deck at 4300 feet AGL
Weather: no significant weather observed at this time

METAR text: LUKK 171030Z 07007KT 040V110 9999 BKN033 OVC044 10/06 Q1019 R08/D NOSIG
Conditions at: LUKK (CHISINAU INTL , MD) observed 1030 UTC 17 April 2019
Temperature: 10.0°C (50°F)
Dewpoint: 6.0°C (43°F) [RH = 76%]
Pressure (altimeter): 30.09 inches Hg (1019.0 mb)
Winds: from the ENE (70 degrees) at 8 MPH (7 knots; 3.6 m/s)
Visibility: 6 or more miles (10+ km)
Ceiling: 3300 feet AGL
Clouds: broken clouds at 3300 feet AGL
overcast cloud deck at 4400 feet AGL
Weather: no significant weather observed at this time

METAR text: LUKK 171000Z 07009KT 050V110 9999 SCT019 BKN036 OVC042 10/06 Q1018 R08/290150 NOSIG
Conditions at: LUKK (CHISINAU INTL , MD) observed 1000 UTC 17 April 2019
Temperature: 10.0°C (50°F)
Dewpoint: 6.0°C (43°F) [RH = 76%]
Pressure (altimeter): 30.06 inches Hg (1018.0 mb)
Winds: from the ENE (70 degrees) at 10 MPH (9 knots; 4.6 m/s)
Visibility: 6 or more miles (10+ km)
Ceiling: 3600 feet AGL
Clouds: scattered clouds at 1900 feet AGL
broken clouds at 3600 feet AGL
overcast cloud deck at 4200 feet AGL
Weather: no significant weather observed at this time

METAR text: LUKK 170930Z 08005KT 040V130 9999 -RA FEW013 SCT019 BKN026 10/06 Q1018 R08/290150 NOSIG
Conditions at: LUKK (CHISINAU INTL , MD) observed 0930 UTC 17 April 2019
Temperature: 10.0°C (50°F)
Dewpoint: 6.0°C (43°F) [RH = 76%]
Pressure (altimeter): 30.06 inches Hg (1018.0 mb)
Winds: from the E (80 degrees) at 6 MPH (5 knots; 2.6 m/s)
Visibility: 6 or more miles (10+ km)
Ceiling: 2600 feet AGL
Clouds: few clouds at 1300 feet AGL
scattered clouds at 1900 feet AGL
broken clouds at 2600 feet AGL
Weather: -RA  (light rain)

METAR text: LUKK 170900Z 05008KT 020V090 9999 SCT014 SCT019 BKN025 10/08 Q1018 R08/290150 NOSIG
Conditions at: LUKK (CHISINAU INTL , MD) observed 0900 UTC 17 April 2019
Temperature: 10.0°C (50°F)
Dewpoint: 8.0°C (46°F) [RH = 87%]
Pressure (altimeter): 30.06 inches Hg (1018.0 mb)
Winds: from the NE (50 degrees) at 9 MPH (8 knots; 4.1 m/s)
Visibility: 6 or more miles (10+ km)
Ceiling: 2500 feet AGL
Clouds: scattered clouds at 1400 feet AGL
scattered clouds at 1900 feet AGL
broken clouds at 2500 feet AGL
Weather: no significant weather observed at this time

METAR text: LUKK 170830Z 05008KT 9999 SCT011 BKN016 BKN021 09/07 Q1017 R08/290150 NOSIG
Conditions at: LUKK (CHISINAU INTL , MD) observed 0830 UTC 17 April 2019
Temperature: 9.0°C (48°F)
Dewpoint: 7.0°C (45°F) [RH = 87%]
Pressure (altimeter): 30.03 inches Hg (1017.0 mb)
Winds: from the NE (50 degrees) at 9 MPH (8 knots; 4.1 m/s)
Visibility: 6 or more miles (10+ km)
Ceiling: 1600 feet AGL
Clouds: scattered clouds at 1100 feet AGL
broken clouds at 1600 feet AGL
broken clouds at 2100 feet AGL
Weather: no significant weather observed at this time

METAR text: LUKK 170800Z 06006KT 9999 BKN008 OVC014 08/07 Q1017 R08/290150 NOSIG
Conditions at: LUKK (CHISINAU INTL , MD) observed 0800 UTC 17 April 2019
Temperature: 8.0°C (46°F)
Dewpoint: 7.0°C (45°F) [RH = 93%]
Pressure (altimeter): 30.03 inches Hg (1017.0 mb)
Winds: from the ENE (60 degrees) at 7 MPH (6 knots; 3.1 m/s)
Visibility: 6 or more miles (10+ km)
Ceiling: 800 feet AGL
Clouds: broken clouds at 800 feet AGL
overcast cloud deck at 1400 feet AGL
Weather: no significant weather observed at this time

METAR text: LUKK 170730Z 05007KT 9999 BKN007 OVC014 08/07 Q1017 R08/290150 NOSIG
Conditions at: LUKK (CHISINAU INTL , MD) observed 0730 UTC 17 April 2019
Temperature: 8.0°C (46°F)
Dewpoint: 7.0°C (45°F) [RH = 93%]
Pressure (altimeter): 30.03 inches Hg (1017.0 mb)
Winds: from the NE (50 degrees) at 8 MPH (7 knots; 3.6 m/s)
Visibility: 6 or more miles (10+ km)
Ceiling: 700 feet AGL
Clouds: broken clouds at 700 feet AGL
overcast cloud deck at 1400 feet AGL
Weather: no significant weather observed at this time

METAR text: LUKK 170700Z 06008KT 9999 OVC006 07/06 Q1017 R08/290150 NOSIG
Conditions at: LUKK (CHISINAU INTL , MD) observed 0700 UTC 17 April 2019
Temperature: 7.0°C (45°F)
Dewpoint: 6.0°C (43°F) [RH = 93%]
Pressure (altimeter): 30.03 inches Hg (1017.0 mb)
Winds: from the ENE (60 degrees) at 9 MPH (8 knots; 4.1 m/s)
Visibility: 6 or more miles (10+ km)
Ceiling: 600 feet AGL
Clouds: overcast cloud deck at 600 feet AGL
Weather: no significant weather observed at this time

METAR text: LUKK 170630Z 04008KT 9999 OVC005 07/06 Q1016 R08/290150 NOSIG
Conditions at: LUKK (CHISINAU INTL , MD) observed 0630 UTC 17 April 2019
Temperature: 7.0°C (45°F)
Dewpoint: 6.0°C (43°F) [RH = 93%]
Pressure (altimeter): 30.00 inches Hg (1016.0 mb)
Winds: from the NE (40 degrees) at 9 MPH (8 knots; 4.1 m/s)
Visibility: 6 or more miles (10+ km)
Ceiling: 500 feet AGL
Clouds: overcast cloud deck at 500 feet AGL
Weather: no significant weather observed at this time

Forecast for: LUKK (CHISINAU INTL , MD)
Text: TAF LUKK 181720Z 1818/1918 34006KT 9999 SCT040
Forecast period: 1800 UTC 18 April 2019 to 0400 UTC 19 April 2019
Forecast type: FROM: standard forecast or significant change
Winds: from the NNW (340 degrees) at 7 MPH (6 knots; 3.1 m/s)
Visibility: 6 or more miles 10+ km)
Ceiling: at least 12,000 feet AGL
Clouds: scattered clouds at 4000 feet AGL
Weather: no significant weather forecast for this period
Text: BECMG 1904/1906 04010KT BKN015 SCT025CB
Forecast period: 0400 to 1800 UTC 19 April 2019
Forecast type: BECOMING: Conditions expected to become as follows by 0600 UTC 19 April 2019
Winds: from the NE (40 degrees) at 12 MPH (10 knots; 5.1 m/s)
Visibility: 6 or more miles 10+ km)
Ceiling: 1500 feet AGL
Clouds: broken clouds at 1500 feet AGL
scattered clouds at 2500 feet AGL
Weather: no significant weather forecast for this period
Text: TEMPO 1906/1916 5000 SHRA BKN010 BKN020CB
Forecast period: 0600 to 1600 UTC 19 April 2019
Forecast type: TEMPORARY: The following changes expected for less than half the time period
Visibility: 3 miles (5 km)
Ceiling: 1000 feet AGL
Clouds: broken clouds at 1000 feet AGL
broken clouds at 2000 feet AGL
Weather: SHRA  (rain showers)
Text: PROB40
Forecast period: 0900 to 1600 UTC 19 April 2019
Forecast type: TEMPORARY: The following changes expected for less than half the time period
Winds: from the NNE (20 degrees) at 17 MPH (15 knots; 7.7 m/s)
gusting to 29 MPH (25 knots; 12.9 m/s)
Visibility: 1.86 miles (2.99 km)
Ceiling: 600 feet AGL
Clouds: broken clouds at 600 feet AGL
broken clouds at 1500 feet AGL
Weather: TSRA  (rain associated with thunderstorm(s))